sensor_id;sensor_type;location;lat;lon;timestamp;P1;durP1;ratioP1;P2;durP2;ratioP2
60098;SDS011;62818;49.394;8.686;2023-12-28T00:00:36;7.47;;;5.53;;
60098;SDS011;62818;49.394;8.686;2023-12-28T00:01:36;9.93;;;5.93;;
60098;SDS011;62818;49.394;8.686;2023-12-28T00:02:37;8.17;;;6.30;;
60098;SDS011;62818;49.394;8.686;2023-12-28T00:03:37;8.27;;;5.97;;
60098;SDS011;62818;49.394;8.686;2023-12-28T00:04:40;11.02;;;5.82;;
60098;SDS011;62818;49.394;8.686;2023-12-28T00:05:41;8.57;;;5.97;;
60098;SDS011;62818;49.394;8.686;2023-12-28T00:06:41;10.13;;;6.60;;
60098;SDS011;62818;49.394;8.686;2023-12-28T00:07:42;6.73;;;5.50;;
60098;SDS011;62818;49.394;8.686;2023-12-28T00:08:42;9.73;;;6.43;;
60098;SDS011;62818;49.394;8.686;2023-12-28T00:09:43;10.83;;;6.13;;
60098;SDS011;62818;49.394;8.686;2023-12-28T00:10:44;9.47;;;6.30;;
60098;SDS011;62818;49.394;8.686;2023-12-28T00:11:44;7.23;;;5.57;;
60098;SDS011;62818;49.394;8.686;2023-12-28T00:12:45;7.17;;;5.73;;
60098;SDS011;62818;49.394;8.686;2023-12-28T00:13:45;7.73;;;5.43;;
60098;SDS011;62818;49.394;8.686;2023-12-28T00:14:46;9.47;;;5.67;;
60098;SDS011;62818;49.394;8.686;2023-12-28T00:15:46;9.73;;;6.23;;
60098;SDS011;62818;49.394;8.686;2023-12-28T00:16:47;8.57;;;5.87;;
60098;SDS011;62818;49.394;8.686;2023-12-28T00:17:47;10.23;;;5.60;;
60098;SDS011;62818;49.394;8.686;2023-12-28T00:18:48;6.47;;;5.30;;
60098;SDS011;62818;49.394;8.686;2023-12-28T00:19:48;7.23;;;5.50;;
60098;SDS011;62818;49.394;8.686;2023-12-28T00:20:49;8.90;;;6.00;;
60098;SDS011;62818;49.394;8.686;2023-12-28T00:21:49;8.77;;;5.70;;
60098;SDS011;62818;49.394;8.686;2023-12-28T00:22:50;8.97;;;6.00;;
60098;SDS011;62818;49.394;8.686;2023-12-28T00:23:50;12.67;;;5.90;;
60098;SDS011;62818;49.394;8.686;2023-12-28T00:24:51;8.57;;;5.47;;
60098;SDS011;62818;49.394;8.686;2023-12-28T00:25:51;10.60;;;5.70;;
60098;SDS011;62818;49.394;8.686;2023-12-28T00:26:52;9.50;;;6.07;;
60098;SDS011;62818;49.394;8.686;2023-12-28T00:27:52;10.43;;;6.20;;
60098;SDS011;62818;49.394;8.686;2023-12-28T00:28:53;10.57;;;6.17;;
60098;SDS011;62818;49.394;8.686;2023-12-28T00:29:53;9.50;;;6.23;;
60098;SDS011;62818;49.394;8.686;2023-12-28T00:30:53;7.83;;;5.47;;
60098;SDS011;62818;49.394;8.686;2023-12-28T00:31:54;7.70;;;5.70;;
60098;SDS011;62818;49.394;8.686;2023-12-28T00:32:55;8.30;;;5.87;;
60098;SDS011;62818;49.394;8.686;2023-12-28T00:33:55;7.87;;;5.97;;
60098;SDS011;62818;49.394;8.686;2023-12-28T00:34:56;9.03;;;6.00;;
60098;SDS011;62818;49.394;8.686;2023-12-28T00:35:56;10.17;;;6.47;;
60098;SDS011;62818;49.394;8.686;2023-12-28T00:36:57;9.05;;;5.53;;
60098;SDS011;62818;49.394;8.686;2023-12-28T00:37:58;8.90;;;5.90;;
60098;SDS011;62818;49.394;8.686;2023-12-28T00:38:58;8.90;;;5.73;;
60098;SDS011;62818;49.394;8.686;2023-12-28T00:39:58;8.27;;;6.00;;
60098;SDS011;62818;49.394;8.686;2023-12-28T00:40:59;8.47;;;5.83;;
60098;SDS011;62818;49.394;8.686;2023-12-28T00:41:59;6.67;;;5.43;;
60098;SDS011;62818;49.394;8.686;2023-12-28T00:43:00;8.70;;;5.77;;
60098;SDS011;62818;49.394;8.686;2023-12-28T00:44:00;8.33;;;5.87;;
60098;SDS011;62818;49.394;8.686;2023-12-28T00:45:02;7.22;;;6.10;;
60098;SDS011;62818;49.394;8.686;2023-12-28T00:46:03;7.55;;;5.63;;
60098;SDS011;62818;49.394;8.686;2023-12-28T00:47:03;10.27;;;5.57;;
60098;SDS011;62818;49.394;8.686;2023-12-28T00:48:04;7.13;;;5.28;;
60098;SDS011;62818;49.394;8.686;2023-12-28T00:49:05;10.75;;;5.70;;
60098;SDS011;62818;49.394;8.686;2023-12-28T00:50:06;7.90;;;5.33;;
60098;SDS011;62818;49.394;8.686;2023-12-28T00:51:07;9.90;;;5.60;;
60098;SDS011;62818;49.394;8.686;2023-12-28T00:52:07;8.67;;;5.13;;
60098;SDS011;62818;49.394;8.686;2023-12-28T00:53:08;9.33;;;6.03;;
60098;SDS011;62818;49.394;8.686;2023-12-28T00:54:08;8.17;;;5.97;;
60098;SDS011;62818;49.394;8.686;2023-12-28T00:55:10;8.53;;;6.50;;
60098;SDS011;62818;49.394;8.686;2023-12-28T00:56:10;10.05;;;5.00;;
60098;SDS011;62818;49.394;8.686;2023-12-28T00:57:11;9.33;;;5.73;;
60098;SDS011;62818;49.394;8.686;2023-12-28T00:58:11;7.40;;;5.63;;
60098;SDS011;62818;49.394;8.686;2023-12-28T00:59:12;11.07;;;6.20;;
60098;SDS011;62818;49.394;8.686;2023-12-28T01:00:12;10.73;;;5.90;;
60098;SDS011;62818;49.394;8.686;2023-12-28T01:01:13;9.02;;;5.50;;
60098;SDS011;62818;49.394;8.686;2023-12-28T01:02:14;10.07;;;6.20;;
60098;SDS011;62818;49.394;8.686;2023-12-28T01:03:14;10.10;;;5.80;;
60098;SDS011;62818;49.394;8.686;2023-12-28T01:04:15;8.50;;;5.63;;
60098;SDS011;62818;49.394;8.686;2023-12-28T01:06:17;8.55;;;5.97;;
60098;SDS011;62818;49.394;8.686;2023-12-28T01:07:18;8.97;;;6.00;;
60098;SDS011;62818;49.394;8.686;2023-12-28T01:08:18;7.70;;;5.77;;
60098;SDS011;62818;49.394;8.686;2023-12-28T01:09:19;8.70;;;5.97;;
60098;SDS011;62818;49.394;8.686;2023-12-28T01:10:20;10.50;;;5.15;;
60098;SDS011;62818;49.394;8.686;2023-12-28T01:11:21;10.00;;;5.53;;
60098;SDS011;62818;49.394;8.686;2023-12-28T01:12:22;9.67;;;6.27;;
60098;SDS011;62818;49.394;8.686;2023-12-28T01:13:22;9.77;;;6.20;;
60098;SDS011;62818;49.394;8.686;2023-12-28T01:14:23;7.87;;;5.87;;
60098;SDS011;62818;49.394;8.686;2023-12-28T01:15:23;10.33;;;5.80;;
60098;SDS011;62818;49.394;8.686;2023-12-28T01:16:23;7.27;;;6.00;;
60098;SDS011;62818;49.394;8.686;2023-12-28T01:17:24;7.20;;;5.93;;
60098;SDS011;62818;49.394;8.686;2023-12-28T01:18:24;10.13;;;6.53;;
60098;SDS011;62818;49.394;8.686;2023-12-28T01:19:25;9.73;;;6.07;;
60098;SDS011;62818;49.394;8.686;2023-12-28T01:20:25;8.43;;;6.00;;
60098;SDS011;62818;49.394;8.686;2023-12-28T01:21:26;8.57;;;6.17;;
60098;SDS011;62818;49.394;8.686;2023-12-28T01:22:28;8.73;;;6.38;;
60098;SDS011;62818;49.394;8.686;2023-12-28T01:23:29;8.13;;;5.73;;
60098;SDS011;62818;49.394;8.686;2023-12-28T01:24:29;8.93;;;6.17;;
60098;SDS011;62818;49.394;8.686;2023-12-28T01:25:29;8.27;;;5.63;;
60098;SDS011;62818;49.394;8.686;2023-12-28T01:26:30;8.40;;;6.23;;
60098;SDS011;62818;49.394;8.686;2023-12-28T01:27:30;7.63;;;5.30;;
60098;SDS011;62818;49.394;8.686;2023-12-28T01:28:31;11.47;;;6.03;;
60098;SDS011;62818;49.394;8.686;2023-12-28T01:29:31;8.83;;;5.97;;
60098;SDS011;62818;49.394;8.686;2023-12-28T01:30:32;8.05;;;6.05;;
60098;SDS011;62818;49.394;8.686;2023-12-28T01:31:34;8.02;;;4.95;;
60098;SDS011;62818;49.394;8.686;2023-12-28T01:32:34;9.97;;;5.63;;
60098;SDS011;62818;49.394;8.686;2023-12-28T01:33:35;9.40;;;6.13;;
60098;SDS011;62818;49.394;8.686;2023-12-28T01:34:35;6.70;;;4.93;;
60098;SDS011;62818;49.394;8.686;2023-12-28T01:35:36;7.43;;;4.83;;
60098;SDS011;62818;49.394;8.686;2023-12-28T01:36:36;11.57;;;4.97;;
60098;SDS011;62818;49.394;8.686;2023-12-28T01:37:41;7.22;;;5.15;;
60098;SDS011;62818;49.394;8.686;2023-12-28T01:38:42;5.33;;;4.60;;
60098;SDS011;62818;49.394;8.686;2023-12-28T01:39:42;9.23;;;5.00;;
60098;SDS011;62818;49.394;8.686;2023-12-28T01:40:45;5.70;;;4.93;;
60098;SDS011;62818;49.394;8.686;2023-12-28T01:41:46;8.70;;;5.63;;
60098;SDS011;62818;49.394;8.686;2023-12-28T01:42:46;9.73;;;5.20;;
60098;SDS011;62818;49.394;8.686;2023-12-28T01:43:47;6.67;;;5.10;;
60098;SDS011;62818;49.394;8.686;2023-12-28T01:44:47;6.60;;;5.27;;
60098;SDS011;62818;49.394;8.686;2023-12-28T01:45:48;7.83;;;4.87;;
60098;SDS011;62818;49.394;8.686;2023-12-28T01:46:48;7.83;;;5.70;;
60098;SDS011;62818;49.394;8.686;2023-12-28T01:47:50;7.25;;;4.55;;
60098;SDS011;62818;49.394;8.686;2023-12-28T01:48:56;5.13;;;4.60;;
60098;SDS011;62818;49.394;8.686;2023-12-28T01:49:56;5.50;;;4.70;;
60098;SDS011;62818;49.394;8.686;2023-12-28T01:50:59;10.07;;;4.88;;
60098;SDS011;62818;49.394;8.686;2023-12-28T01:52:00;9.60;;;5.30;;
60098;SDS011;62818;49.394;8.686;2023-12-28T01:53:03;6.25;;;4.10;;
60098;SDS011;62818;49.394;8.686;2023-12-28T01:54:04;6.90;;;4.25;;
60098;SDS011;62818;49.394;8.686;2023-12-28T01:55:04;7.00;;;4.77;;
60098;SDS011;62818;49.394;8.686;2023-12-28T01:56:07;8.60;;;5.22;;
60098;SDS011;62818;49.394;8.686;2023-12-28T01:57:08;7.50;;;4.30;;
60098;SDS011;62818;49.394;8.686;2023-12-28T01:58:10;5.13;;;4.30;;
60098;SDS011;62818;49.394;8.686;2023-12-28T01:59:12;5.35;;;3.65;;
60098;SDS011;62818;49.394;8.686;2023-12-28T02:00:13;6.10;;;4.15;;
60098;SDS011;62818;49.394;8.686;2023-12-28T02:01:14;7.28;;;3.65;;
60098;SDS011;62818;49.394;8.686;2023-12-28T02:02:14;6.77;;;4.17;;
60098;SDS011;62818;49.394;8.686;2023-12-28T02:03:16;5.57;;;4.20;;
60098;SDS011;62818;49.394;8.686;2023-12-28T02:04:16;6.93;;;4.43;;
60098;SDS011;62818;49.394;8.686;2023-12-28T02:05:17;4.90;;;4.00;;
60098;SDS011;62818;49.394;8.686;2023-12-28T02:06:19;6.75;;;4.20;;
60098;SDS011;62818;49.394;8.686;2023-12-28T02:07:24;6.53;;;4.90;;
60098;SDS011;62818;49.394;8.686;2023-12-28T02:08:25;5.10;;;4.15;;
60098;SDS011;62818;49.394;8.686;2023-12-28T02:09:26;6.40;;;4.50;;
60098;SDS011;62818;49.394;8.686;2023-12-28T02:10:27;6.88;;;4.40;;
60098;SDS011;62818;49.394;8.686;2023-12-28T02:11:27;6.75;;;4.32;;
60098;SDS011;62818;49.394;8.686;2023-12-28T02:12:28;6.10;;;4.50;;
60098;SDS011;62818;49.394;8.686;2023-12-28T02:13:29;5.80;;;4.37;;
60098;SDS011;62818;49.394;8.686;2023-12-28T02:14:29;6.10;;;4.87;;
60098;SDS011;62818;49.394;8.686;2023-12-28T02:15:30;6.63;;;4.60;;
60098;SDS011;62818;49.394;8.686;2023-12-28T02:16:35;8.90;;;4.90;;
60098;SDS011;62818;49.394;8.686;2023-12-28T02:17:51;6.07;;;4.60;;
60098;SDS011;62818;49.394;8.686;2023-12-28T02:19:09;5.55;;;4.28;;
60098;SDS011;62818;49.394;8.686;2023-12-28T02:20:51;5.00;;;4.43;;
60098;SDS011;62818;49.394;8.686;2023-12-28T02:21:54;7.50;;;4.78;;
60098;SDS011;62818;49.394;8.686;2023-12-28T02:22:55;8.30;;;5.28;;
60098;SDS011;62818;49.394;8.686;2023-12-28T02:23:56;6.75;;;5.28;;
60098;SDS011;62818;49.394;8.686;2023-12-28T02:26:08;6.63;;;4.80;;
60098;SDS011;62818;49.394;8.686;2023-12-28T02:27:09;6.03;;;4.67;;
60098;SDS011;62818;49.394;8.686;2023-12-28T02:28:09;8.57;;;4.97;;
60098;SDS011;62818;49.394;8.686;2023-12-28T02:29:10;6.50;;;4.70;;
60098;SDS011;62818;49.394;8.686;2023-12-28T02:30:11;6.77;;;4.57;;
60098;SDS011;62818;49.394;8.686;2023-12-28T02:31:14;6.35;;;4.90;;
60098;SDS011;62818;49.394;8.686;2023-12-28T02:32:31;7.72;;;4.80;;
60098;SDS011;62818;49.394;8.686;2023-12-28T02:33:57;8.05;;;5.18;;
60098;SDS011;62818;49.394;8.686;2023-12-28T02:35:14;6.85;;;4.28;;
60098;SDS011;62818;49.394;8.686;2023-12-28T02:36:22;10.82;;;4.88;;
60098;SDS011;62818;49.394;8.686;2023-12-28T02:37:26;7.43;;;5.10;;
60098;SDS011;62818;49.394;8.686;2023-12-28T02:38:30;6.93;;;4.30;;
60098;SDS011;62818;49.394;8.686;2023-12-28T02:39:32;6.93;;;4.78;;
60098;SDS011;62818;49.394;8.686;2023-12-28T02:40:37;6.30;;;4.68;;
60098;SDS011;62818;49.394;8.686;2023-12-28T02:41:42;7.40;;;4.28;;
60098;SDS011;62818;49.394;8.686;2023-12-28T02:42:44;7.32;;;4.30;;
60098;SDS011;62818;49.394;8.686;2023-12-28T02:43:46;10.43;;;4.80;;
60098;SDS011;62818;49.394;8.686;2023-12-28T02:44:48;6.28;;;4.72;;
60098;SDS011;62818;49.394;8.686;2023-12-28T02:45:50;8.60;;;4.88;;
60098;SDS011;62818;49.394;8.686;2023-12-28T02:46:50;5.77;;;4.60;;
60098;SDS011;62818;49.394;8.686;2023-12-28T02:47:51;6.13;;;4.50;;
60098;SDS011;62818;49.394;8.686;2023-12-28T02:48:51;7.27;;;4.43;;
60098;SDS011;62818;49.394;8.686;2023-12-28T02:49:52;7.18;;;4.60;;
60098;SDS011;62818;49.394;8.686;2023-12-28T02:50:53;7.37;;;4.53;;
60098;SDS011;62818;49.394;8.686;2023-12-28T02:51:54;5.97;;;4.47;;
60098;SDS011;62818;49.394;8.686;2023-12-28T02:52:54;7.73;;;4.70;;
60098;SDS011;62818;49.394;8.686;2023-12-28T02:53:54;6.57;;;4.63;;
60098;SDS011;62818;49.394;8.686;2023-12-28T02:54:55;5.93;;;4.47;;
60098;SDS011;62818;49.394;8.686;2023-12-28T02:55:55;5.23;;;4.07;;
60098;SDS011;62818;49.394;8.686;2023-12-28T02:56:56;6.03;;;4.20;;
60098;SDS011;62818;49.394;8.686;2023-12-28T02:57:57;6.47;;;4.63;;
60098;SDS011;62818;49.394;8.686;2023-12-28T02:59:01;7.20;;;4.53;;
60098;SDS011;62818;49.394;8.686;2023-12-28T03:00:02;7.23;;;5.00;;
60098;SDS011;62818;49.394;8.686;2023-12-28T03:01:04;7.35;;;4.20;;
60098;SDS011;62818;49.394;8.686;2023-12-28T03:02:05;8.80;;;4.67;;
60098;SDS011;62818;49.394;8.686;2023-12-28T03:03:06;5.50;;;4.30;;
60098;SDS011;62818;49.394;8.686;2023-12-28T03:04:06;7.43;;;4.30;;
60098;SDS011;62818;49.394;8.686;2023-12-28T03:05:09;5.68;;;4.10;;
60098;SDS011;62818;49.394;8.686;2023-12-28T03:06:09;5.83;;;4.10;;
60098;SDS011;62818;49.394;8.686;2023-12-28T03:07:10;5.43;;;4.10;;
60098;SDS011;62818;49.394;8.686;2023-12-28T03:08:10;5.83;;;4.17;;
60098;SDS011;62818;49.394;8.686;2023-12-28T03:09:11;7.73;;;4.87;;
60098;SDS011;62818;49.394;8.686;2023-12-28T03:10:11;6.47;;;4.30;;
60098;SDS011;62818;49.394;8.686;2023-12-28T03:11:12;6.70;;;5.10;;
60098;SDS011;62818;49.394;8.686;2023-12-28T03:12:13;7.97;;;4.00;;
60098;SDS011;62818;49.394;8.686;2023-12-28T03:13:13;7.87;;;4.23;;
60098;SDS011;62818;49.394;8.686;2023-12-28T03:14:14;5.90;;;4.60;;
60098;SDS011;62818;49.394;8.686;2023-12-28T03:15:14;5.87;;;4.07;;
60098;SDS011;62818;49.394;8.686;2023-12-28T03:16:15;7.03;;;4.43;;
60098;SDS011;62818;49.394;8.686;2023-12-28T03:17:15;6.90;;;4.67;;
60098;SDS011;62818;49.394;8.686;2023-12-28T03:18:16;4.80;;;3.63;;
60098;SDS011;62818;49.394;8.686;2023-12-28T03:19:16;5.07;;;4.33;;
60098;SDS011;62818;49.394;8.686;2023-12-28T03:20:18;5.45;;;4.18;;
60098;SDS011;62818;49.394;8.686;2023-12-28T03:21:18;5.07;;;4.25;;
60098;SDS011;62818;49.394;8.686;2023-12-28T03:22:19;5.63;;;4.33;;
60098;SDS011;62818;49.394;8.686;2023-12-28T03:23:19;6.67;;;4.50;;
60098;SDS011;62818;49.394;8.686;2023-12-28T03:24:20;6.03;;;3.60;;
60098;SDS011;62818;49.394;8.686;2023-12-28T03:25:20;4.77;;;3.87;;
60098;SDS011;62818;49.394;8.686;2023-12-28T03:26:21;5.77;;;3.70;;
60098;SDS011;62818;49.394;8.686;2023-12-28T03:27:21;4.60;;;4.00;;
60098;SDS011;62818;49.394;8.686;2023-12-28T03:28:22;6.33;;;4.40;;
60098;SDS011;62818;49.394;8.686;2023-12-28T03:29:23;6.07;;;4.13;;
60098;SDS011;62818;49.394;8.686;2023-12-28T03:30:24;6.53;;;4.05;;
60098;SDS011;62818;49.394;8.686;2023-12-28T03:31:25;5.93;;;4.60;;
60098;SDS011;62818;49.394;8.686;2023-12-28T03:32:25;6.60;;;4.20;;
60098;SDS011;62818;49.394;8.686;2023-12-28T03:33:26;5.80;;;3.87;;
60098;SDS011;62818;49.394;8.686;2023-12-28T03:34:27;5.78;;;3.85;;
60098;SDS011;62818;49.394;8.686;2023-12-28T03:35:29;4.90;;;4.13;;
60098;SDS011;62818;49.394;8.686;2023-12-28T03:36:32;5.10;;;4.30;;
60098;SDS011;62818;49.394;8.686;2023-12-28T03:37:33;4.90;;;3.92;;
60098;SDS011;62818;49.394;8.686;2023-12-28T03:38:34;5.88;;;4.43;;
60098;SDS011;62818;49.394;8.686;2023-12-28T03:39:35;6.57;;;4.80;;
60098;SDS011;62818;49.394;8.686;2023-12-28T03:40:35;7.00;;;3.93;;
60098;SDS011;62818;49.394;8.686;2023-12-28T03:41:36;5.00;;;4.20;;
60098;SDS011;62818;49.394;8.686;2023-12-28T03:42:36;4.93;;;4.10;;
60098;SDS011;62818;49.394;8.686;2023-12-28T03:43:38;5.60;;;3.80;;
60098;SDS011;62818;49.394;8.686;2023-12-28T03:44:38;7.30;;;4.47;;
60098;SDS011;62818;49.394;8.686;2023-12-28T03:45:39;4.97;;;4.03;;
60098;SDS011;62818;49.394;8.686;2023-12-28T03:46:39;5.57;;;4.60;;
60098;SDS011;62818;49.394;8.686;2023-12-28T03:47:40;5.67;;;4.33;;
60098;SDS011;62818;49.394;8.686;2023-12-28T03:48:40;5.60;;;3.70;;
60098;SDS011;62818;49.394;8.686;2023-12-28T03:49:41;11.37;;;4.60;;
60098;SDS011;62818;49.394;8.686;2023-12-28T03:50:41;6.43;;;4.17;;
60098;SDS011;62818;49.394;8.686;2023-12-28T03:51:42;4.80;;;3.83;;
60098;SDS011;62818;49.394;8.686;2023-12-28T03:52:42;5.47;;;4.40;;
60098;SDS011;62818;49.394;8.686;2023-12-28T03:53:43;5.90;;;4.07;;
60098;SDS011;62818;49.394;8.686;2023-12-28T03:54:43;4.93;;;4.10;;
60098;SDS011;62818;49.394;8.686;2023-12-28T03:55:44;5.40;;;4.10;;
60098;SDS011;62818;49.394;8.686;2023-12-28T03:56:45;4.47;;;3.97;;
60098;SDS011;62818;49.394;8.686;2023-12-28T03:57:46;5.07;;;4.55;;
60098;SDS011;62818;49.394;8.686;2023-12-28T03:58:47;4.53;;;3.97;;
60098;SDS011;62818;49.394;8.686;2023-12-28T03:59:48;6.13;;;4.10;;
60098;SDS011;62818;49.394;8.686;2023-12-28T04:00:49;5.73;;;4.27;;
60098;SDS011;62818;49.394;8.686;2023-12-28T04:01:49;7.93;;;5.83;;
60098;SDS011;62818;49.394;8.686;2023-12-28T04:02:50;7.40;;;4.23;;
60098;SDS011;62818;49.394;8.686;2023-12-28T04:03:50;4.73;;;3.53;;
60098;SDS011;62818;49.394;8.686;2023-12-28T04:04:51;5.70;;;4.03;;
60098;SDS011;62818;49.394;8.686;2023-12-28T04:05:52;6.07;;;4.00;;
60098;SDS011;62818;49.394;8.686;2023-12-28T04:06:53;4.63;;;4.10;;
60098;SDS011;62818;49.394;8.686;2023-12-28T04:07:53;4.33;;;3.60;;
60098;SDS011;62818;49.394;8.686;2023-12-28T04:08:53;6.23;;;3.63;;
60098;SDS011;62818;49.394;8.686;2023-12-28T04:09:54;4.57;;;3.63;;
60098;SDS011;62818;49.394;8.686;2023-12-28T04:10:56;5.47;;;3.97;;
60098;SDS011;62818;49.394;8.686;2023-12-28T04:11:56;5.37;;;4.00;;
60098;SDS011;62818;49.394;8.686;2023-12-28T04:12:57;6.40;;;3.80;;
60098;SDS011;62818;49.394;8.686;2023-12-28T04:14:59;4.63;;;3.80;;
60098;SDS011;62818;49.394;8.686;2023-12-28T04:15:59;4.53;;;3.60;;
60098;SDS011;62818;49.394;8.686;2023-12-28T04:17:00;6.10;;;3.63;;
60098;SDS011;62818;49.394;8.686;2023-12-28T04:18:01;7.20;;;3.57;;
60098;SDS011;62818;49.394;8.686;2023-12-28T04:19:01;4.83;;;3.83;;
60098;SDS011;62818;49.394;8.686;2023-12-28T04:20:02;6.05;;;3.53;;
60098;SDS011;62818;49.394;8.686;2023-12-28T04:21:03;4.22;;;3.35;;
60098;SDS011;62818;49.394;8.686;2023-12-28T04:22:07;6.90;;;4.10;;
60098;SDS011;62818;49.394;8.686;2023-12-28T04:23:08;6.93;;;4.20;;
60098;SDS011;62818;49.394;8.686;2023-12-28T04:24:08;3.90;;;3.47;;
60098;SDS011;62818;49.394;8.686;2023-12-28T04:25:09;4.57;;;3.50;;
60098;SDS011;62818;49.394;8.686;2023-12-28T04:26:09;3.93;;;3.03;;
60098;SDS011;62818;49.394;8.686;2023-12-28T04:27:10;3.93;;;3.40;;
60098;SDS011;62818;49.394;8.686;2023-12-28T04:28:10;4.73;;;3.37;;
60098;SDS011;62818;49.394;8.686;2023-12-28T04:29:11;4.93;;;3.50;;
60098;SDS011;62818;49.394;8.686;2023-12-28T04:30:12;5.63;;;3.77;;
60098;SDS011;62818;49.394;8.686;2023-12-28T04:31:13;6.35;;;3.70;;
60098;SDS011;62818;49.394;8.686;2023-12-28T04:32:13;5.00;;;3.53;;
60098;SDS011;62818;49.394;8.686;2023-12-28T04:33:16;5.47;;;3.63;;
60098;SDS011;62818;49.394;8.686;2023-12-28T04:34:19;4.00;;;3.33;;
60098;SDS011;62818;49.394;8.686;2023-12-28T04:35:19;5.37;;;3.20;;
60098;SDS011;62818;49.394;8.686;2023-12-28T04:36:20;6.90;;;3.37;;
60098;SDS011;62818;49.394;8.686;2023-12-28T04:37:20;4.13;;;3.20;;
60098;SDS011;62818;49.394;8.686;2023-12-28T04:38:21;4.20;;;3.17;;
60098;SDS011;62818;49.394;8.686;2023-12-28T04:39:21;5.10;;;3.63;;
60098;SDS011;62818;49.394;8.686;2023-12-28T04:40:21;3.93;;;3.53;;
60098;SDS011;62818;49.394;8.686;2023-12-28T04:41:22;7.23;;;3.53;;
60098;SDS011;62818;49.394;8.686;2023-12-28T04:42:22;9.33;;;7.30;;
60098;SDS011;62818;49.394;8.686;2023-12-28T04:43:23;10.27;;;7.43;;
60098;SDS011;62818;49.394;8.686;2023-12-28T04:44:23;7.43;;;5.40;;
60098;SDS011;62818;49.394;8.686;2023-12-28T04:45:25;5.20;;;3.45;;
60098;SDS011;62818;49.394;8.686;2023-12-28T04:47:27;3.58;;;3.05;;
60098;SDS011;62818;49.394;8.686;2023-12-28T04:48:28;3.20;;;2.90;;
60098;SDS011;62818;49.394;8.686;2023-12-28T04:49:28;4.47;;;3.17;;
60098;SDS011;62818;49.394;8.686;2023-12-28T04:50:29;3.30;;;3.00;;
60098;SDS011;62818;49.394;8.686;2023-12-28T04:51:29;5.47;;;3.30;;
60098;SDS011;62818;49.394;8.686;2023-12-28T04:52:30;5.80;;;2.83;;
60098;SDS011;62818;49.394;8.686;2023-12-28T04:53:31;5.15;;;3.20;;
60098;SDS011;62818;49.394;8.686;2023-12-28T04:54:32;3.00;;;2.63;;
60098;SDS011;62818;49.394;8.686;2023-12-28T04:55:35;4.20;;;3.05;;
60098;SDS011;62818;49.394;8.686;2023-12-28T04:56:36;3.55;;;2.67;;
60098;SDS011;62818;49.394;8.686;2023-12-28T04:57:37;4.90;;;3.73;;
60098;SDS011;62818;49.394;8.686;2023-12-28T04:58:37;5.83;;;3.53;;
60098;SDS011;62818;49.394;8.686;2023-12-28T04:59:40;4.90;;;3.07;;
60098;SDS011;62818;49.394;8.686;2023-12-28T05:00:41;3.25;;;2.83;;
60098;SDS011;62818;49.394;8.686;2023-12-28T05:01:45;6.83;;;2.90;;
60098;SDS011;62818;49.394;8.686;2023-12-28T05:02:45;3.70;;;3.28;;
60098;SDS011;62818;49.394;8.686;2023-12-28T05:03:46;3.33;;;2.83;;
60098;SDS011;62818;49.394;8.686;2023-12-28T05:04:46;4.30;;;3.30;;
60098;SDS011;62818;49.394;8.686;2023-12-28T05:05:47;4.40;;;2.77;;
60098;SDS011;62818;49.394;8.686;2023-12-28T05:06:47;3.47;;;2.70;;
60098;SDS011;62818;49.394;8.686;2023-12-28T05:07:48;5.33;;;3.17;;
60098;SDS011;62818;49.394;8.686;2023-12-28T05:08:48;3.97;;;2.80;;
60098;SDS011;62818;49.394;8.686;2023-12-28T05:09:49;3.77;;;2.90;;
60098;SDS011;62818;49.394;8.686;2023-12-28T05:10:49;5.73;;;3.40;;
60098;SDS011;62818;49.394;8.686;2023-12-28T05:11:50;3.53;;;2.73;;
60098;SDS011;62818;49.394;8.686;2023-12-28T05:12:50;5.33;;;2.93;;
60098;SDS011;62818;49.394;8.686;2023-12-28T05:13:51;4.97;;;2.80;;
60098;SDS011;62818;49.394;8.686;2023-12-28T05:14:51;3.87;;;3.00;;
60098;SDS011;62818;49.394;8.686;2023-12-28T05:15:51;6.67;;;2.70;;
60098;SDS011;62818;49.394;8.686;2023-12-28T05:16:52;3.77;;;2.50;;
60098;SDS011;62818;49.394;8.686;2023-12-28T05:17:52;3.97;;;3.07;;
60098;SDS011;62818;49.394;8.686;2023-12-28T05:18:53;4.27;;;2.90;;
60098;SDS011;62818;49.394;8.686;2023-12-28T05:19:53;3.90;;;2.73;;
60098;SDS011;62818;49.394;8.686;2023-12-28T05:20:56;4.03;;;3.15;;
60098;SDS011;62818;49.394;8.686;2023-12-28T05:21:56;3.30;;;2.57;;
60098;SDS011;62818;49.394;8.686;2023-12-28T05:22:56;5.30;;;3.23;;
60098;SDS011;62818;49.394;8.686;2023-12-28T05:23:57;2.90;;;2.60;;
60098;SDS011;62818;49.394;8.686;2023-12-28T05:24:57;3.60;;;2.67;;
60098;SDS011;62818;49.394;8.686;2023-12-28T05:25:58;3.27;;;2.97;;
60098;SDS011;62818;49.394;8.686;2023-12-28T05:26:58;4.33;;;2.90;;
60098;SDS011;62818;49.394;8.686;2023-12-28T05:27:59;3.30;;;2.77;;
60098;SDS011;62818;49.394;8.686;2023-12-28T05:28:59;5.10;;;3.47;;
60098;SDS011;62818;49.394;8.686;2023-12-28T05:30:00;4.77;;;3.73;;
60098;SDS011;62818;49.394;8.686;2023-12-28T05:31:00;5.97;;;3.40;;
60098;SDS011;62818;49.394;8.686;2023-12-28T05:32:01;2.80;;;2.43;;
60098;SDS011;62818;49.394;8.686;2023-12-28T05:33:02;3.73;;;3.33;;
60098;SDS011;62818;49.394;8.686;2023-12-28T05:34:02;3.50;;;3.00;;
60098;SDS011;62818;49.394;8.686;2023-12-28T05:35:03;4.43;;;3.07;;
60098;SDS011;62818;49.394;8.686;2023-12-28T05:36:04;4.30;;;3.42;;
60098;SDS011;62818;49.394;8.686;2023-12-28T05:38:06;6.40;;;2.60;;
60098;SDS011;62818;49.394;8.686;2023-12-28T05:39:06;3.87;;;3.07;;
60098;SDS011;62818;49.394;8.686;2023-12-28T05:40:09;6.13;;;3.17;;
60098;SDS011;62818;49.394;8.686;2023-12-28T05:41:10;3.85;;;3.38;;
60098;SDS011;62818;49.394;8.686;2023-12-28T05:42:11;7.55;;;3.42;;
60098;SDS011;62818;49.394;8.686;2023-12-28T05:43:12;5.53;;;2.97;;
60098;SDS011;62818;49.394;8.686;2023-12-28T05:44:13;3.23;;;2.77;;
60098;SDS011;62818;49.394;8.686;2023-12-28T05:45:14;3.00;;;2.70;;
60098;SDS011;62818;49.394;8.686;2023-12-28T05:46:15;7.27;;;2.83;;
60098;SDS011;62818;49.394;8.686;2023-12-28T05:47:15;6.37;;;3.40;;
60098;SDS011;62818;49.394;8.686;2023-12-28T05:48:15;6.80;;;2.67;;
60098;SDS011;62818;49.394;8.686;2023-12-28T05:49:16;4.90;;;3.20;;
60098;SDS011;62818;49.394;8.686;2023-12-28T05:50:16;2.97;;;2.77;;
60098;SDS011;62818;49.394;8.686;2023-12-28T05:51:17;3.97;;;3.13;;
60098;SDS011;62818;49.394;8.686;2023-12-28T05:52:18;6.30;;;3.28;;
60098;SDS011;62818;49.394;8.686;2023-12-28T05:53:19;6.23;;;3.10;;
60098;SDS011;62818;49.394;8.686;2023-12-28T05:54:19;4.30;;;2.90;;
60098;SDS011;62818;49.394;8.686;2023-12-28T05:55:20;6.20;;;3.17;;
60098;SDS011;62818;49.394;8.686;2023-12-28T05:56:21;8.02;;;3.45;;
60098;SDS011;62818;49.394;8.686;2023-12-28T05:57:21;3.43;;;2.70;;
60098;SDS011;62818;49.394;8.686;2023-12-28T05:58:22;4.47;;;3.30;;
60098;SDS011;62818;49.394;8.686;2023-12-28T05:59:22;4.77;;;3.00;;
60098;SDS011;62818;49.394;8.686;2023-12-28T06:00:26;5.20;;;2.80;;
60098;SDS011;62818;49.394;8.686;2023-12-28T06:01:26;3.23;;;2.93;;
60098;SDS011;62818;49.394;8.686;2023-12-28T06:02:27;5.43;;;2.90;;
60098;SDS011;62818;49.394;8.686;2023-12-28T06:03:28;5.05;;;3.15;;
60098;SDS011;62818;49.394;8.686;2023-12-28T06:04:30;4.28;;;3.33;;
60098;SDS011;62818;49.394;8.686;2023-12-28T06:05:30;4.57;;;2.90;;
60098;SDS011;62818;49.394;8.686;2023-12-28T06:06:32;4.75;;;3.20;;
60098;SDS011;62818;49.394;8.686;2023-12-28T06:07:32;4.37;;;3.00;;
60098;SDS011;62818;49.394;8.686;2023-12-28T06:08:33;4.28;;;2.70;;
60098;SDS011;62818;49.394;8.686;2023-12-28T06:09:33;4.53;;;2.83;;
60098;SDS011;62818;49.394;8.686;2023-12-28T06:10:34;3.27;;;2.80;;
60098;SDS011;62818;49.394;8.686;2023-12-28T06:11:35;5.72;;;2.85;;
60098;SDS011;62818;49.394;8.686;2023-12-28T06:12:35;3.70;;;2.90;;
60098;SDS011;62818;49.394;8.686;2023-12-28T06:13:36;3.50;;;3.20;;